Time;durP1;ratioP1;P1;durP2;ratioP2;P2;SDS_P1;SDS_P2;PMS_P1;PMS_P2;Temp;Humidity;BMP_temperature;BMP_pressure;BME280_temperature;BME280_humidity;BME280_pressure;Samples;Min_cycle;Max_cycle;Signal;HPM_P1;HPM_P2
2021/09/08 00:00:17;;;;;;;21.80;17.93;;;16.60;99.90;;;;;;5077096;28;20772;-71
2021/09/08 00:02:44;;;;;;;24.80;17.95;;;16.60;99.90;;;;;;5076994;28;20482;-71
2021/09/08 00:05:11;;;;;;;22.10;18.10;;;16.60;99.90;;;;;;5076926;28;20196;-71
2021/09/08 00:07:38;;;;;;;21.73;17.80;;;16.60;99.90;;;;;;5077134;28;20463;-72
2021/09/08 00:10:07;;;;;;;22.20;17.80;;;16.60;99.90;;;;;;5077243;28;20503;-72
2021/09/08 00:12:34;;;;;;;22.13;16.90;;;16.60;99.90;;;;;;5077040;28;20251;-72
2021/09/08 00:15:01;;;;;;;22.70;18.30;;;16.60;99.90;;;;;;5077022;28;20462;-72
2021/09/08 00:17:29;;;;;;;21.83;18.33;;;16.50;99.90;;;;;;5076731;28;20911;-72
2021/09/08 00:19:56;;;;;;;20.47;17.40;;;16.50;99.90;;;;;;5077004;28;20208;-72
2021/09/08 00:22:23;;;;;;;22.33;17.53;;;16.50;99.90;;;;;;5076517;28;20458;-72
2021/09/08 00:24:50;;;;;;;26.75;18.85;;;16.50;99.90;;;;;;5076804;28;20461;-72
2021/09/08 00:27:18;;;;;;;27.58;19.17;;;16.50;99.90;;;;;;5076938;28;20204;-71
2021/09/08 00:29:45;;;;;;;21.10;17.67;;;16.50;99.90;;;;;;5076685;28;20220;-72
2021/09/08 00:32:12;;;;;;;24.80;18.20;;;16.50;99.90;;;;;;5076674;28;20468;-72
2021/09/08 00:34:40;;;;;;;20.63;17.97;;;16.50;99.90;;;;;;5076595;28;20515;-72
2021/09/08 00:37:06;;;;;;;27.25;19.30;;;16.50;99.90;;;;;;5076592;28;20801;-72
2021/09/08 00:39:33;;;;;;;24.83;18.48;;;16.50;99.90;;;;;;5076505;28;20507;-72
2021/09/08 00:42:00;;;;;;;27.00;20.30;;;16.50;99.90;;;;;;5076100;28;20258;-72
2021/09/08 00:44:27;;;;;;;35.13;27.57;;;16.50;99.90;;;;;;5076195;28;20537;-71
2021/09/08 00:46:57;;;;;;;30.40;24.30;;;16.50;99.90;;;;;;5076436;28;20468;-71
2021/09/08 00:49:25;;;;;;;24.63;19.63;;;16.50;99.90;;;;;;5076300;28;20462;-72
2021/09/08 00:51:56;;;;;;;25.03;19.77;;;16.40;99.90;;;;;;5076127;28;20548;-72
2021/09/08 00:54:24;;;;;;;25.93;19.57;;;16.40;99.90;;;;;;5076450;28;20458;-71
2021/09/08 00:56:55;;;;;;;21.73;18.58;;;16.30;99.90;;;;;;5075800;28;20785;-72
2021/09/08 00:59:22;;;;;;;26.83;20.47;;;16.30;99.90;;;;;;5076168;28;20238;-71
2021/09/08 01:01:48;;;;;;;25.77;19.03;;;16.30;99.90;;;;;;5075670;28;20486;-72
2021/09/08 01:04:15;;;;;;;22.92;19.42;;;16.30;99.90;;;;;;5075885;28;20953;-72
2021/09/08 01:06:42;;;;;;;25.20;18.03;;;16.30;99.90;;;;;;5075977;28;20204;-72
2021/09/08 01:09:11;;;;;;;26.73;20.30;;;16.30;99.90;;;;;;5075332;28;20988;-71
2021/09/08 01:11:38;;;;;;;24.70;19.20;;;16.20;99.90;;;;;;5075872;28;20459;-71
2021/09/08 01:14:05;;;;;;;26.73;19.30;;;16.20;99.90;;;;;;5075638;28;20466;-72
2021/09/08 01:16:32;;;;;;;29.10;20.60;;;16.20;99.90;;;;;;5075548;28;20462;-71
2021/09/08 01:18:59;;;;;;;26.83;20.67;;;16.20;99.90;;;;;;5075522;28;20789;-71
2021/09/08 01:21:25;;;;;;;26.08;19.90;;;16.10;99.90;;;;;;5075614;28;20478;-72
2021/09/08 01:23:53;;;;;;;23.40;18.70;;;16.20;99.90;;;;;;5075336;28;20742;-73
2021/09/08 01:26:20;;;;;;;24.00;19.17;;;16.20;99.90;;;;;;5075358;28;20488;-73
2021/09/08 01:28:49;;;;;;;24.43;17.87;;;16.20;99.90;;;;;;5075532;28;20458;-73
2021/09/08 01:31:17;;;;;;;22.40;18.40;;;16.10;99.90;;;;;;5075089;28;20693;-72
2021/09/08 01:33:46;;;;;;;23.10;18.30;;;16.10;99.90;;;;;;5075581;28;20467;-72
2021/09/08 01:36:13;;;;;;;25.27;19.13;;;16.10;99.90;;;;;;5075538;28;20786;-72
2021/09/08 01:38:39;;;;;;;22.92;18.35;;;16.10;99.90;;;;;;5074550;28;20469;-73
2021/09/08 01:41:09;;;;;;;24.40;17.97;;;16.10;99.90;;;;;;5074877;28;20243;-73
2021/09/08 01:43:35;;;;;;;21.30;17.50;;;16.10;99.90;;;;;;5075186;28;20457;-73
2021/09/08 01:46:02;;;;;;;22.40;18.20;;;16.10;99.90;;;;;;5075097;28;20784;-73
2021/09/08 01:48:29;;;;;;;24.30;17.20;;;16.00;99.90;;;;;;5075435;28;20462;-73
2021/09/08 01:50:56;;;;;;;22.90;18.90;;;16.00;99.90;;;;;;5074977;28;20496;-73
2021/09/08 01:53:23;;;;;;;26.75;17.30;;;16.00;99.90;;;;;;5075077;28;20454;-73
2021/09/08 01:55:51;;;;;;;20.27;16.80;;;16.00;99.90;;;;;;5074936;28;20231;-73
2021/09/08 01:58:19;;;;;;;20.13;15.93;;;16.00;99.90;;;;;;5075054;28;20501;-73
2021/09/08 02:00:46;;;;;;;22.37;17.27;;;16.00;99.90;;;;;;5074616;28;20531;-73
2021/09/08 02:03:12;;;;;;;20.87;16.20;;;16.00;99.90;;;;;;5074957;28;20527;-73
2021/09/08 02:05:39;;;;;;;26.25;20.08;;;15.90;99.90;;;;;;5074975;28;20461;-73
2021/09/08 02:08:06;;;;;;;25.47;18.00;;;16.00;99.90;;;;;;5074857;28;20211;-73
2021/09/08 02:10:33;;;;;;;19.43;15.20;;;16.00;99.90;;;;;;5074774;28;20520;-73
2021/09/08 02:12:59;;;;;;;19.83;17.03;;;16.00;99.90;;;;;;5074226;28;20938;-73
2021/09/08 02:15:27;;;;;;;20.50;15.50;;;15.90;99.90;;;;;;5074538;28;21036;-73
2021/09/08 02:17:57;;;;;;;20.10;14.83;;;15.90;99.90;;;;;;5074695;28;20450;-73
2021/09/08 02:20:23;;;;;;;22.03;16.33;;;15.90;99.90;;;;;;5074695;28;20454;-72
2021/09/08 02:22:50;;;;;;;19.73;14.68;;;15.90;99.90;;;;;;5074412;28;20469;-73
2021/09/08 02:25:17;;;;;;;19.85;15.57;;;15.90;99.90;;;;;;5074802;28;20266;-72
2021/09/08 02:27:44;;;;;;;19.23;14.43;;;15.90;99.90;;;;;;5074160;28;20203;-73
2021/09/08 02:30:14;;;;;;;19.00;14.60;;;16.00;99.90;;;;;;5074321;28;20450;-73
2021/09/08 02:32:42;;;;;;;17.67;14.93;;;15.90;99.90;;;;;;5074550;28;20454;-71
2021/09/08 02:35:09;;;;;;;18.10;14.80;;;15.90;99.90;;;;;;5074260;28;20454;-72
2021/09/08 02:37:36;;;;;;;15.77;13.53;;;15.90;99.90;;;;;;5074282;28;20976;-72
2021/09/08 02:40:04;;;;;;;20.63;14.93;;;15.90;99.90;;;;;;5074109;28;20490;-72
2021/09/08 02:42:30;;;;;;;18.23;14.33;;;15.90;99.90;;;;;;5075050;28;20466;-72
2021/09/08 02:44:57;;;;;;;19.87;14.37;;;15.80;99.90;;;;;;5074646;28;20830;-72
2021/09/08 02:47:24;;;;;;;18.60;14.13;;;15.80;99.90;;;;;;5074353;28;20454;-72
2021/09/08 02:49:52;;;;;;;17.20;13.97;;;15.80;99.90;;;;;;5074154;28;20469;-72
2021/09/08 02:52:19;;;;;;;18.20;14.53;;;15.80;99.90;;;;;;5077681;28;20454;-72
2021/09/08 02:54:45;;;;;;;19.13;14.00;;;15.70;99.90;;;;;;5078182;28;20457;-72
2021/09/08 02:57:15;;;;;;;17.73;14.30;;;15.70;99.90;;;;;;5078356;28;20458;-72
2021/09/08 02:59:42;;;;;;;17.07;13.40;;;15.70;99.90;;;;;;5078095;28;20465;-72
2021/09/08 03:02:08;;;;;;;18.77;13.82;;;15.70;99.90;;;;;;5078174;28;20800;-72
2021/09/08 03:04:35;;;;;;;21.30;15.10;;;15.70;99.90;;;;;;5078154;28;20216;-72
2021/09/08 03:07:04;;;;;;;17.48;14.18;;;15.70;99.90;;;;;;5077893;28;20479;-72
2021/09/08 03:09:30;;;;;;;17.60;13.67;;;15.70;99.90;;;;;;5078255;28;20196;-72
2021/09/08 03:11:58;;;;;;;18.27;14.33;;;15.70;99.90;;;;;;5078191;28;20466;-72
2021/09/08 03:14:24;;;;;;;16.00;13.73;;;15.70;99.90;;;;;;5078226;28;20507;-72
2021/09/08 03:16:51;;;;;;;19.73;13.43;;;15.70;99.90;;;;;;5077999;28;20454;-72
2021/09/08 03:19:18;;;;;;;16.07;13.03;;;15.60;99.90;;;;;;5078186;28;20462;-72
2021/09/08 03:21:44;;;;;;;20.33;14.00;;;15.60;99.90;;;;;;5078335;28;20539;-72
2021/09/08 03:24:12;;;;;;;17.77;13.90;;;15.60;99.90;;;;;;5077945;28;20927;-72
2021/09/08 03:26:39;;;;;;;14.33;12.83;;;15.60;99.90;;;;;;5077658;28;20515;-72
2021/09/08 03:29:06;;;;;;;18.43;14.70;;;15.60;99.90;;;;;;5077798;28;20531;-72
2021/09/08 03:31:32;;;;;;;18.30;13.47;;;15.50;99.90;;;;;;5077851;28;20458;-72
2021/09/08 03:33:59;;;;;;;17.00;13.40;;;15.50;99.90;;;;;;5077575;28;20890;-72
2021/09/08 03:36:26;;;;;;;14.20;12.25;;;15.50;99.90;;;;;;5077706;28;20454;-72
2021/09/08 03:38:52;;;;;;;17.10;13.23;;;15.50;99.90;;;;;;5077414;28;20200;-72
2021/09/08 03:41:20;;;;;;;16.05;12.60;;;15.50;99.90;;;;;;5077059;28;20988;-73
2021/09/08 03:43:47;;;;;;;19.23;13.70;;;15.50;99.90;;;;;;5077572;28;20204;-73
2021/09/08 03:46:14;;;;;;;16.30;13.07;;;15.60;99.90;;;;;;5077224;28;20454;-73
2021/09/08 03:48:43;;;;;;;16.63;13.27;;;15.60;99.90;;;;;;5076969;28;20458;-73
2021/09/08 03:51:12;;;;;;;17.97;13.20;;;15.50;99.90;;;;;;5077817;28;20450;-73
2021/09/08 03:53:39;;;;;;;17.60;13.10;;;15.50;99.90;;;;;;5077437;28;20532;-73
2021/09/08 03:56:06;;;;;;;19.10;13.47;;;15.50;99.90;;;;;;5077279;28;20454;-73
2021/09/08 03:58:35;;;;;;;18.83;14.32;;;15.50;99.90;;;;;;5077156;28;20462;-73
2021/09/08 04:01:05;;;;;;;18.80;13.00;;;15.50;99.90;;;;;;5076947;28;20257;-73
2021/09/08 04:03:32;;;;;;;16.47;13.97;;;15.50;99.90;;;;;;5076836;28;20945;-72
2021/09/08 04:05:58;;;;;;;17.37;12.73;;;15.50;99.90;;;;;;5077452;28;20779;-72
2021/09/08 04:08:25;;;;;;;17.13;13.87;;;15.50;99.90;;;;;;5076913;28;20822;-72
2021/09/08 04:10:52;;;;;;;19.17;12.60;;;15.50;99.90;;;;;;5077220;28;20465;-72
2021/09/08 04:13:18;;;;;;;18.03;13.20;;;15.40;99.90;;;;;;5077068;28;20921;-72
2021/09/08 04:15:46;;;;;;;18.13;12.83;;;15.40;99.90;;;;;;5076911;28;20464;-73
2021/09/08 04:18:13;;;;;;;17.03;13.37;;;15.40;99.90;;;;;;5076840;28;20527;-73
2021/09/08 04:20:40;;;;;;;20.67;14.37;;;15.40;99.90;;;;;;5076708;28;20772;-73
2021/09/08 04:23:08;;;;;;;15.27;13.17;;;15.40;99.90;;;;;;5077117;28;20863;-74
2021/09/08 04:25:34;;;;;;;18.20;13.20;;;15.40;99.90;;;;;;5076232;28;20462;-73
2021/09/08 04:28:01;;;;;;;15.63;12.77;;;15.30;99.90;;;;;;5076978;28;20472;-73
2021/09/08 04:30:28;;;;;;;16.53;13.47;;;15.30;99.90;;;;;;5076683;28;20519;-73
2021/09/08 04:32:57;;;;;;;18.53;13.57;;;15.30;99.90;;;;;;5076508;28;20792;-73
2021/09/08 04:35:24;;;;;;;17.50;13.80;;;15.30;99.90;;;;;;5076385;28;20894;-73
2021/09/08 04:37:51;;;;;;;16.57;12.90;;;15.30;99.90;;;;;;5076094;28;20461;-73
2021/09/08 04:40:18;;;;;;;17.20;13.27;;;15.30;99.90;;;;;;5076611;28;20490;-74
2021/09/08 04:42:45;;;;;;;19.37;15.13;;;15.30;99.90;;;;;;5075938;28;20479;-73
2021/09/08 04:45:12;;;;;;;17.80;13.30;;;15.30;99.90;;;;;;5076445;28;20485;-73
2021/09/08 04:47:41;;;;;;;18.07;14.33;;;15.30;99.90;;;;;;5076462;28;20454;-73
2021/09/08 04:50:09;;;;;;;16.93;13.70;;;15.30;99.90;;;;;;5076117;28;20599;-73
2021/09/08 04:52:38;;;;;;;19.08;13.45;;;15.30;99.90;;;;;;5076229;28;20941;-72
2021/09/08 04:55:07;;;;;;;20.63;14.30;;;15.30;99.90;;;;;;5076842;28;20291;-73
2021/09/08 04:57:34;;;;;;;17.43;14.47;;;15.40;99.90;;;;;;5076461;28;20506;-73
2021/09/08 05:00:00;;;;;;;18.10;14.07;;;15.50;99.90;;;;;;5076159;28;20938;-73
2021/09/08 05:02:27;;;;;;;19.53;14.10;;;15.50;99.90;;;;;;5076345;28;20805;-73
2021/09/08 05:04:54;;;;;;;20.70;15.27;;;15.50;99.90;;;;;;5076133;28;20773;-73
2021/09/08 05:07:22;;;;;;;18.97;14.37;;;15.60;99.90;;;;;;5076010;28;20903;-73
2021/09/08 05:09:49;;;;;;;21.40;14.13;;;15.60;99.90;;;;;;5075836;28;20476;-73
2021/09/08 05:12:17;;;;;;;17.73;13.53;;;15.60;99.90;;;;;;5075802;28;20478;-73
2021/09/08 05:14:44;;;;;;;17.80;13.70;;;15.60;99.90;;;;;;5074875;28;20545;-73
2021/09/08 05:17:11;;;;;;;21.57;13.67;;;15.70;99.90;;;;;;5075217;28;20458;-73
2021/09/08 05:19:38;;;;;;;21.60;14.53;;;15.70;99.90;;;;;;5075485;28;20936;-72
2021/09/08 05:22:04;;;;;;;17.70;14.20;;;15.70;99.90;;;;;;5075628;28;20482;-73
2021/09/08 05:24:35;;;;;;;19.00;15.03;;;15.80;99.90;;;;;;5075480;28;20458;-72
2021/09/08 05:27:02;;;;;;;22.53;15.90;;;15.80;99.90;;;;;;5075440;28;20439;-72
2021/09/08 05:29:29;;;;;;;22.07;14.73;;;15.80;99.90;;;;;;5075466;28;20454;-72
2021/09/08 05:31:56;;;;;;;18.67;14.80;;;15.90;99.90;;;;;;5075250;28;20922;-72
2021/09/08 05:34:26;;;;;;;23.97;15.37;;;15.90;99.90;;;;;;5075362;28;20466;-72
2021/09/08 05:36:53;;;;;;;18.47;13.43;;;15.90;99.90;;;;;;5075349;28;20516;-72
2021/09/08 05:39:20;;;;;;;19.80;15.48;;;16.00;99.90;;;;;;5074927;28;20454;-72
2021/09/08 05:41:51;;;;;;;20.67;14.90;;;16.00;99.90;;;;;;5074532;28;20238;-72
2021/09/08 05:44:18;;;;;;;19.00;14.60;;;16.10;99.90;;;;;;5075080;28;20469;-73
2021/09/08 05:46:47;;;;;;;18.70;13.50;;;16.20;99.90;;;;;;5074623;28;20458;-74
2021/09/08 05:49:14;;;;;;;18.80;13.97;;;16.20;99.90;;;;;;5074137;28;20469;-73
2021/09/08 05:51:41;;;;;;;21.43;16.70;;;16.20;99.90;;;;;;5074776;28;20458;-71
2021/09/08 05:54:07;;;;;;;23.05;16.52;;;16.30;99.90;;;;;;5074903;28;20465;-72
2021/09/08 05:56:34;;;;;;;19.70;15.27;;;16.40;99.90;;;;;;5074593;28;20200;-72
2021/09/08 05:59:03;;;;;;;21.37;15.10;;;16.50;99.90;;;;;;5074828;28;20458;-72
2021/09/08 06:01:30;;;;;;;20.93;14.67;;;16.60;99.90;;;;;;5074526;28;20793;-72
2021/09/08 06:03:58;;;;;;;15.57;13.40;;;16.60;99.90;;;;;;5074822;28;20773;-73
2021/09/08 06:06:24;;;;;;;19.23;14.27;;;16.70;99.90;;;;;;5074870;28;20235;-73
2021/09/08 06:08:51;;;;;;;20.50;14.03;;;16.80;99.90;;;;;;5074582;28;20535;-73
2021/09/08 06:11:18;;;;;;;17.73;13.73;;;16.90;99.90;;;;;;5074612;28;20457;-73
2021/09/08 06:13:45;;;;;;;21.20;14.05;;;16.90;99.90;;;;;;5074697;28;20458;-73
2021/09/08 06:16:13;;;;;;;17.10;13.20;;;17.00;99.90;;;;;;5074650;28;20211;-73
2021/09/08 06:18:39;;;;;;;17.80;13.77;;;17.10;99.90;;;;;;5074572;28;20465;-73
2021/09/08 06:21:06;;;;;;;17.07;12.80;;;17.20;99.90;;;;;;5074530;28;20462;-72
2021/09/08 06:23:33;;;;;;;19.03;13.53;;;17.20;99.90;;;;;;5074099;28;20486;-72
2021/09/08 06:25:59;;;;;;;16.15;12.48;;;17.30;99.90;;;;;;5074111;28;20454;-72
2021/09/08 06:28:26;;;;;;;16.13;12.48;;;17.30;99.90;;;;;;5074193;28;20208;-72
2021/09/08 06:30:53;;;;;;;14.73;12.70;;;17.40;99.90;;;;;;5074084;28;20265;-72
2021/09/08 06:33:21;;;;;;;13.83;12.00;;;17.50;99.90;;;;;;5074343;28;20516;-72
2021/09/08 06:35:49;;;;;;;14.80;12.20;;;17.60;99.90;;;;;;5074428;28;20458;-72
2021/09/08 06:38:16;;;;;;;15.63;12.60;;;17.60;99.90;;;;;;5074196;28;20458;-72
2021/09/08 06:40:44;;;;;;;21.53;13.67;;;17.70;99.90;;;;;;5073784;28;20788;-71
2021/09/08 06:43:11;;;;;;;17.40;12.40;;;17.70;99.90;;;;;;5073790;28;20489;-72
2021/09/08 06:45:38;;;;;;;18.08;13.85;;;17.80;99.90;;;;;;5073760;28;20515;-72
2021/09/08 06:48:05;;;;;;;15.63;12.98;;;17.90;99.90;;;;;;5074777;28;20204;-72
2021/09/08 06:50:33;;;;;;;18.13;12.87;;;18.00;99.90;;;;;;5073711;28;20210;-72
2021/09/08 06:53:00;;;;;;;15.90;12.50;;;18.10;99.90;;;;;;5074350;28;20904;-72
2021/09/08 06:55:27;;;;;;;15.60;12.60;;;18.20;99.90;;;;;;5073938;28;20457;-72
2021/09/08 06:57:54;;;;;;;14.73;11.90;;;18.30;99.90;;;;;;5073888;28;20462;-73
2021/09/08 07:00:21;;;;;;;16.10;13.73;;;18.30;99.90;;;;;;5074263;28;20458;-72
2021/09/08 07:02:47;;;;;;;18.40;12.93;;;18.40;99.90;;;;;;5073984;28;20478;-72
2021/09/08 07:05:15;;;;;;;18.90;13.13;;;18.40;99.90;;;;;;5073899;28;20531;-72
2021/09/08 07:07:44;;;;;;;24.73;13.50;;;18.50;80.00;;;;;;5074251;28;20553;-73
2021/09/08 07:10:12;;;;;;;15.67;11.30;;;18.50;1.00;;;;;;5073973;28;20544;-72
2021/09/08 07:12:44;;;;;;;17.97;12.70;;;18.60;1.00;;;;;;5074036;28;20925;-72
2021/09/08 07:15:12;;;;;;;16.07;12.20;;;18.60;1.00;;;;;;5074750;28;20443;-72
2021/09/08 07:17:41;;;;;;;20.25;12.50;;;18.70;1.00;;;;;;5076306;28;20454;-73
2021/09/08 07:20:11;;;;;;;16.40;11.33;;;18.80;99.90;;;;;;5076412;28;20207;-73
2021/09/08 07:22:38;;;;;;;16.53;12.20;;;18.90;91.80;;;;;;5076349;28;20783;-73
2021/09/08 07:25:08;;;;;;;16.70;12.60;;;18.90;1.00;;;;;;5075362;28;20462;-73
2021/09/08 07:27:35;;;;;;;13.60;10.90;;;19.00;1.00;;;;;;5075531;28;20458;-73
2021/09/08 07:30:01;;;;;;;16.10;12.30;;;19.10;99.90;;;;;;5075506;28;20467;-73
2021/09/08 07:32:28;;;;;;;14.63;11.07;;;19.10;1.00;;;;;;5074488;28;20814;-72
2021/09/08 07:34:58;;;;;;;16.20;11.50;;;19.20;1.00;;;;;;5074524;28;20919;-73
2021/09/08 07:37:24;;;;;;;12.97;10.20;;;19.30;1.00;;;;;;5075954;28;20469;-73
2021/09/08 07:39:51;;;;;;;16.52;11.98;;;19.40;1.00;;;;;;5076957;28;20800;-73
2021/09/08 07:42:20;;;;;;;14.00;10.90;;;19.50;1.00;;;;;;5077189;28;20184;-73
2021/09/08 07:44:50;;;;;;;14.23;11.02;;;19.60;1.00;;;;;;5076880;28;20773;-73
2021/09/08 07:47:19;;;;;;;15.87;10.20;;;19.70;99.90;;;;;;5076996;28;20516;-73
2021/09/08 07:49:46;;;;;;;12.50;10.47;;;19.80;1.00;;;;;;5077213;28;20454;-72
2021/09/08 07:52:12;;;;;;;12.35;10.48;;;19.90;99.90;;;;;;5076799;28;20811;-73
2021/09/08 07:54:39;;;;;;;15.32;10.18;;;19.90;99.90;;;;;;5077072;28;20216;-72
2021/09/08 07:57:06;;;;;;;13.33;9.93;;;20.00;99.90;;;;;;5077131;28;20219;-73
2021/09/08 07:59:34;;;;;;;16.13;9.90;;;20.10;99.90;;;;;;5076869;28;20465;-73
2021/09/08 08:02:00;;;;;;;12.93;9.97;;;20.20;99.90;;;;;;5077128;28;20454;-72
2021/09/08 08:04:27;;;;;;;10.60;8.70;;;20.20;99.90;;;;;;5076438;28;20482;-72
2021/09/08 08:06:54;;;;;;;13.90;8.13;;;20.30;99.90;;;;;;5076643;28;20865;-72
2021/09/08 08:09:20;;;;;;;12.23;8.63;;;20.40;99.90;;;;;;5076511;28;20842;-73
2021/09/08 08:11:49;;;;;;;11.00;8.93;;;20.40;99.90;;;;;;5076927;28;20819;-73
2021/09/08 08:14:16;;;;;;;11.83;8.60;;;20.50;99.90;;;;;;5076908;28;20464;-73
2021/09/08 08:16:44;;;;;;;17.80;9.23;;;20.50;99.90;;;;;;5076479;28;20508;-72
2021/09/08 08:19:11;;;;;;;8.57;7.40;;;20.60;99.90;;;;;;5076440;28;20458;-73
2021/09/08 08:21:37;;;;;;;10.13;8.57;;;20.60;99.90;;;;;;5076935;28;20473;-72
2021/09/08 08:24:05;;;;;;;10.90;8.63;;;20.70;99.90;;;;;;5076450;28;20478;-73
2021/09/08 08:26:34;;;;;;;16.00;8.50;;;20.80;99.90;;;;;;5076664;28;20458;-73
2021/09/08 08:29:01;;;;;;;15.07;8.60;;;20.90;99.90;;;;;;5076387;28;20461;-73
2021/09/08 08:31:28;;;;;;;10.57;8.73;;;20.90;99.90;;;;;;5076224;28;20454;-73
2021/09/08 08:33:56;;;;;;;9.70;8.70;;;21.00;99.90;;;;;;5076426;28;20520;-73
2021/09/08 08:36:25;;;;;;;9.17;8.20;;;21.10;99.90;;;;;;5076331;28;20466;-73
2021/09/08 08:38:52;;;;;;;9.57;8.60;;;21.10;99.90;;;;;;5076050;28;20915;-73
2021/09/08 08:41:21;;;;;;;10.70;8.47;;;21.20;99.90;;;;;;5075861;28;20486;-71
2021/09/08 08:43:49;;;;;;;10.27;8.80;;;21.30;99.90;;;;;;5076126;28;20973;-72
2021/09/08 08:46:17;;;;;;;9.80;8.77;;;21.40;99.90;;;;;;5076166;28;20553;-72
2021/09/08 08:48:44;;;;;;;13.70;9.10;;;21.50;99.90;;;;;;5075790;28;20450;-72
2021/09/08 08:51:12;;;;;;;12.10;7.87;;;21.50;99.90;;;;;;5075783;28;20469;-72
2021/09/08 08:53:39;;;;;;;12.35;9.68;;;21.60;99.90;;;;;;5076336;28;20454;-72
2021/09/08 08:56:06;;;;;;;10.63;7.90;;;21.70;99.90;;;;;;5076275;28;20203;-72
2021/09/08 08:58:32;;;;;;;9.50;8.30;;;21.70;99.90;;;;;;5075939;28;20458;-73
2021/09/08 09:01:19;;;;;;;8.50;7.60;;;21.80;99.90;;;;;;5076472;28;20439;-73
2021/09/08 09:04:02;;;;;;;10.13;8.03;;;21.90;99.90;;;;;;5075485;28;20489;-72
2021/09/08 09:06:31;;;;;;;10.60;8.90;;;21.90;99.90;;;;;;5075412;28;20457;-73
2021/09/08 09:09:01;;;;;;;9.80;7.83;;;22.00;99.90;;;;;;5075931;28;20458;-72
2021/09/08 09:11:30;;;;;;;11.87;9.20;;;22.10;99.90;;;;;;5075372;28;20473;-72
2021/09/08 09:13:56;;;;;;;12.80;8.80;;;22.20;99.90;;;;;;5075491;28;20479;-72
2021/09/08 09:16:26;;;;;;;9.70;8.07;;;22.20;99.90;;;;;;5075595;28;20462;-72
2021/09/08 09:18:54;;;;;;;8.80;7.80;;;22.30;99.90;;;;;;5075228;28;20495;-73
2021/09/08 09:21:24;;;;;;;8.83;7.93;;;22.40;99.90;;;;;;5075451;28;20459;-73
2021/09/08 09:23:54;;;;;;;15.07;7.03;;;22.40;99.90;;;;;;5075709;28;20472;-73
2021/09/08 09:26:26;;;;;;;9.30;7.93;;;22.50;99.90;;;;;;5075325;28;20454;-73
2021/09/08 09:28:54;;;;;;;8.25;7.45;;;22.50;99.90;;;;;;5075025;28;20446;-73
2021/09/08 09:31:23;;;;;;;10.47;7.90;;;22.60;99.90;;;;;;5075000;28;20197;-73
2021/09/08 09:33:55;;;;;;;13.53;8.80;;;22.70;99.90;;;;;;5075430;28;20795;-74
2021/09/08 09:36:23;;;;;;;9.97;8.83;;;22.80;99.90;;;;;;5075009;28;20449;-73
2021/09/08 09:38:54;;;;;;;9.30;7.95;;;22.90;99.90;;;;;;5075120;28;20898;-74
2021/09/08 09:41:30;;;;;;;8.90;8.00;;;22.90;99.90;;;;;;5074817;28;20231;-73
2021/09/08 09:44:05;;;;;;;7.87;7.07;;;23.00;99.90;;;;;;5075763;28;20458;-74
2021/09/08 09:46:32;;;;;;;9.13;7.57;;;23.00;99.90;;;;;;5075436;28;20453;-73
2021/09/08 09:49:01;;;;;;;8.17;7.10;;;23.00;99.90;;;;;;5074890;28;20802;-74
2021/09/08 09:51:29;;;;;;;9.03;7.87;;;23.10;99.90;;;;;;5075597;28;20461;-74
2021/09/08 09:53:59;;;;;;;10.47;8.33;;;23.10;99.90;;;;;;5075044;28;20454;-74
2021/09/08 09:56:26;;;;;;;9.00;7.60;;;23.00;99.90;;;;;;5075106;28;20446;-73
2021/09/08 09:58:53;;;;;;;13.60;10.77;;;23.10;99.90;;;;;;5074940;28;20459;-73
2021/09/08 10:01:20;;;;;;;10.70;7.77;;;23.10;99.90;;;;;;5074644;28;20261;-73
2021/09/08 10:03:49;;;;;;;8.30;7.50;;;23.20;99.90;;;;;;5074180;28;20507;-72
2021/09/08 10:06:17;;;;;;;8.57;7.40;;;23.20;99.90;;;;;;5075049;28;20454;-73
2021/09/08 10:08:48;;;;;;;9.60;7.80;;;23.30;99.90;;;;;;5075208;28;20492;-73
2021/09/08 10:11:21;;;;;;;10.20;8.10;;;23.30;99.90;;;;;;5074125;28;20505;-73
2021/09/08 10:13:52;;;;;;;9.23;7.67;;;23.20;99.90;;;;;;5074271;28;20763;-73
2021/09/08 10:16:22;;;;;;;8.57;7.67;;;23.20;99.90;;;;;;5073629;28;20439;-74
2021/09/08 10:18:49;;;;;;;9.23;8.33;;;23.20;99.90;;;;;;5074212;28;20837;-74
2021/09/08 10:21:19;;;;;;;8.50;7.60;;;23.10;99.90;;;;;;5074502;28;20454;-74
2021/09/08 10:23:54;;;;;;;9.47;8.47;;;23.20;99.90;;;;;;5074609;28;20474;-74
2021/09/08 10:26:28;;;;;;;9.63;8.10;;;23.40;99.90;;;;;;5074320;28;20442;-74
2021/09/08 10:28:57;;;;;;;9.30;8.40;;;23.50;99.90;;;;;;5074474;28;20548;-73
2021/09/08 10:31:24;;;;;;;9.57;7.90;;;23.60;99.90;;;;;;5074124;28;20492;-73
2021/09/08 10:33:56;;;;;;;9.20;8.00;;;23.80;99.90;;;;;;5074281;28;20454;-73
2021/09/08 10:36:23;;;;;;;8.50;7.50;;;23.90;99.90;;;;;;5074363;28;20788;-73
2021/09/08 10:39:07;;;;;;;9.47;8.47;;;24.00;99.90;;;;;;5074270;28;20466;-73
2021/09/08 10:41:41;;;;;;;10.83;7.20;;;24.10;99.90;;;;;;5073833;28;20485;-73
2021/09/08 10:44:08;;;;;;;10.75;8.32;;;24.20;99.90;;;;;;5074136;28;20481;-73
2021/09/08 10:46:51;;;;;;;9.63;7.70;;;24.40;99.90;;;;;;5074046;28;20204;-73
2021/09/08 10:49:49;;;;;;;8.43;7.37;;;24.50;99.90;;;;;;5073976;28;20446;-73
2021/09/08 10:52:46;;;;;;;8.60;7.17;;;24.50;99.90;;;;;;5074206;28;20826;-73
2021/09/08 10:55:23;;;;;;;8.73;7.93;;;24.60;99.90;;;;;;5073650;28;20450;-74
2021/09/08 10:58:01;;;;;;;8.20;7.40;;;24.70;99.90;;;;;;5073982;28;20784;-74
2021/09/08 11:00:37;;;;;;;10.70;8.50;;;24.70;99.90;;;;;;5074789;28;20465;-73
2021/09/08 11:03:07;;;;;;;9.38;8.48;;;24.60;99.90;;;;;;5073640;28;20544;-73
2021/09/08 11:05:46;;;;;;;9.20;8.30;;;24.60;99.90;;;;;;5074200;28;20192;-76
2021/09/08 11:08:21;;;;;;;8.17;7.23;;;24.60;99.90;;;;;;5074560;28;20504;-73
2021/09/08 11:10:48;;;;;;;9.30;8.40;;;24.70;99.90;;;;;;5073990;28;20438;-73
2021/09/08 11:13:25;;;;;;;8.50;7.70;;;24.80;99.90;;;;;;5077456;28;20469;-72
2021/09/08 11:15:51;;;;;;;11.10;8.67;;;24.90;99.90;;;;;;5077631;28;20765;-73
2021/09/08 11:18:18;;;;;;;9.10;8.20;;;25.10;99.90;;;;;;5077526;28;20464;-73
2021/09/08 11:20:45;;;;;;;8.57;7.77;;;25.30;99.90;;;;;;5079028;28;20621;-73
2021/09/08 11:23:13;;;;;;;10.70;9.10;;;25.50;99.90;;;;;;5077390;28;20458;-73
2021/09/08 11:25:42;;;;;;;10.33;7.60;;;25.70;99.90;;;;;;5077522;28;20450;-72
2021/09/08 11:28:10;;;;;;;8.80;7.90;;;25.90;99.90;;;;;;5077032;28;20458;-74
2021/09/08 11:30:39;;;;;;;10.50;8.93;;;26.20;99.90;;;;;;5077042;28;20450;-74
2021/09/08 11:33:10;;;;;;;10.63;8.60;;;26.60;99.90;;;;;;5077504;28;20918;-73
2021/09/08 11:35:40;;;;;;;12.60;8.03;;;26.90;99.90;;;;;;5077022;28;20442;-74
2021/09/08 11:38:13;;;;;;;9.90;7.97;;;27.00;99.90;;;;;;5078351;28;20803;-73
2021/09/08 11:40:41;;;;;;;8.53;7.63;;;27.10;99.90;;;;;;5076993;28;20485;-73
2021/09/08 11:43:09;;;;;;;8.40;7.43;;;27.00;99.90;;;;;;5077654;28;20907;-74
2021/09/08 11:45:35;;;;;;;8.50;7.00;;;27.00;99.90;;;;;;5077442;28;20486;-74
2021/09/08 11:48:04;;;;;;;7.60;6.70;;;27.20;1.00;;;;;;5077457;28;20469;-73
2021/09/08 11:50:34;;;;;;;7.67;6.97;;;27.60;1.00;;;;;;5077444;28;20457;-73
2021/09/08 11:53:02;;;;;;;7.00;6.33;;;28.10;1.00;;;;;;5077566;28;20458;-73
2021/09/08 11:55:33;;;;;;;7.33;6.43;;;29.00;1.00;;;;;;5077497;28;20456;-73
2021/09/08 11:58:20;;;;;;;7.97;7.17;;;30.10;1.00;;;;;;5077625;28;20438;-73
2021/09/08 12:01:00;;;;;;;8.20;7.10;;;31.40;1.00;;;;;;5077424;28;20458;-73
2021/09/08 12:03:31;;;;;;;7.32;6.53;;;32.20;1.00;;;;;;5077052;28;20207;-74
2021/09/08 12:06:08;;;;;;;8.57;6.20;;;32.90;1.00;;;;;;5076892;28;20686;-74
2021/09/08 12:08:36;;;;;;;7.80;6.30;;;33.60;1.00;;;;;;5076814;28;20472;-73
2021/09/08 12:11:03;;;;;;;6.73;6.03;;;33.70;1.00;;;;;;5076954;28;20454;-73
2021/09/08 12:13:33;;;;;;;8.40;7.60;;;33.90;1.00;;;;;;5076992;28;20527;-73
2021/09/08 12:16:00;;;;;;;5.80;5.30;;;34.30;1.00;;;;;;5076835;28;20453;-74
2021/09/08 12:18:28;;;;;;;5.90;5.40;;;34.90;1.00;;;;;;5076904;28;20774;-74
2021/09/08 12:21:17;;;;;;;5.70;5.13;;;35.60;1.00;;;;;;5077043;28;20219;-74
2021/09/08 12:23:43;;;;;;;5.97;5.47;;;36.10;1.00;;;;;;5076368;28;20208;-74
2021/09/08 12:26:12;;;;;;;7.40;6.30;;;36.60;1.00;;;;;;5076558;28;20632;-74
2021/09/08 12:28:59;;;;;;;7.37;5.63;;;36.60;1.00;;;;;;5076606;28;20818;-74
2021/09/08 12:31:27;;;;;;;5.93;5.43;;;36.40;1.00;;;;;;5076350;28;20841;-74
2021/09/08 12:33:55;;;;;;;6.43;5.90;;;36.00;1.00;;;;;;5076500;28;20454;-74
2021/09/08 12:36:23;;;;;;;5.93;5.33;;;35.70;1.00;;;;;;5076023;28;20469;-74
2021/09/08 12:38:51;;;;;;;11.00;5.37;;;35.60;1.00;;;;;;5076367;28;20838;-74